Time;durP1;ratioP1;P1;durP2;ratioP2;P2;SDS_P1;SDS_P2;PMS_P1;PMS_P2;Temp;Humidity;BMP_temperature;BMP_pressure;BME280_temperature;BME280_humidity;BME280_pressure;Samples;Min_cycle;Max_cycle;Signal;HPM_P1;HPM_P2
2023/03/19 00:00:16;;;;;;;17.73;11.45;;;11.90;78.30;;;;;;5021490;28;20133;-78
2023/03/19 00:02:48;;;;;;;19.67;11.97;;;12.00;78.10;;;;;;5026650;28;20046;-78
2023/03/19 00:05:15;;;;;;;17.83;12.00;;;12.00;78.10;;;;;;5012184;28;20173;-78
2023/03/19 00:07:42;;;;;;;18.48;11.65;;;12.00;78.10;;;;;;5012112;28;20104;-78
2023/03/19 00:10:11;;;;;;;16.80;11.52;;;12.00;78.20;;;;;;5032247;28;20058;-79
2023/03/19 00:12:38;;;;;;;16.02;11.18;;;12.00;78.40;;;;;;5027008;28;20052;-78
2023/03/19 00:15:07;;;;;;;16.50;11.20;;;12.00;78.30;;;;;;5028619;28;20042;-78
2023/03/19 00:17:34;;;;;;;15.65;11.00;;;11.90;78.50;;;;;;5014590;28;20138;-78
2023/03/19 00:20:01;;;;;;;16.85;11.13;;;11.90;78.50;;;;;;5042825;28;20076;-78
2023/03/19 00:22:28;;;;;;;16.55;11.02;;;11.90;78.60;;;;;;5026922;28;20054;-77
2023/03/19 00:24:55;;;;;;;18.70;12.23;;;11.90;78.60;;;;;;5024273;28;20531;-78
2023/03/19 00:27:24;;;;;;;17.10;11.30;;;11.90;78.60;;;;;;5030116;28;20064;-78
2023/03/19 00:29:51;;;;;;;15.68;11.02;;;11.90;78.70;;;;;;5011133;28;20107;-78
2023/03/19 00:32:18;;;;;;;19.00;11.52;;;11.90;78.70;;;;;;5020406;28;20093;-78
2023/03/19 00:34:45;;;;;;;17.42;11.05;;;11.90;78.90;;;;;;5015210;28;20062;-78
2023/03/19 00:37:12;;;;;;;17.13;10.98;;;11.90;78.80;;;;;;5017520;28;20051;-78
2023/03/19 00:39:39;;;;;;;17.23;11.60;;;11.90;78.90;;;;;;5008312;28;20230;-78
2023/03/19 00:42:06;;;;;;;17.55;11.48;;;11.90;79.00;;;;;;5008778;28;20399;-78
2023/03/19 00:44:35;;;;;;;18.85;10.80;;;11.80;79.00;;;;;;5032269;28;20494;-78
2023/03/19 00:47:03;;;;;;;16.23;10.15;;;11.80;79.00;;;;;;5015536;28;20057;-78
2023/03/19 00:49:30;;;;;;;17.95;11.05;;;11.80;79.10;;;;;;5015734;28;20586;-78
2023/03/19 00:51:57;;;;;;;15.83;10.23;;;11.70;79.30;;;;;;5008085;28;20143;-78
2023/03/19 00:54:24;;;;;;;17.35;10.43;;;11.70;79.30;;;;;;4999867;28;20109;-78
2023/03/19 00:56:51;;;;;;;17.33;10.70;;;11.70;79.30;;;;;;5008118;28;20054;-78
2023/03/19 00:59:18;;;;;;;16.25;10.77;;;11.70;79.30;;;;;;5001263;28;20594;-78
2023/03/19 01:01:46;;;;;;;15.25;9.77;;;11.80;79.40;;;;;;5012909;28;20156;-78
2023/03/19 01:04:13;;;;;;;15.47;10.17;;;11.80;79.30;;;;;;5019140;28;20109;-79
2023/03/19 01:06:40;;;;;;;15.75;10.85;;;11.70;79.30;;;;;;5008043;28;20077;-78
2023/03/19 01:09:07;;;;;;;17.85;10.93;;;11.70;79.40;;;;;;5016279;28;20424;-78
2023/03/19 01:11:36;;;;;;;16.05;10.43;;;11.70;79.40;;;;;;5011258;28;20060;-78
2023/03/19 01:14:03;;;;;;;15.68;10.23;;;11.70;79.60;;;;;;5027822;28;20069;-78
2023/03/19 01:16:30;;;;;;;15.10;9.77;;;11.80;79.60;;;;;;5027520;28;20136;-78
2023/03/19 01:18:58;;;;;;;15.15;9.75;;;11.80;79.60;;;;;;5018026;28;20095;-78
2023/03/19 01:21:26;;;;;;;15.43;9.35;;;11.80;79.60;;;;;;5030903;28;20049;-78
2023/03/19 01:23:53;;;;;;;14.38;8.45;;;11.70;79.70;;;;;;5011818;28;20053;-78
2023/03/19 01:26:21;;;;;;;14.38;8.50;;;11.70;79.60;;;;;;5027733;28;20054;-78
2023/03/19 01:28:51;;;;;;;12.03;7.50;;;11.70;79.90;;;;;;5006789;28;20134;-78
2023/03/19 01:31:21;;;;;;;11.48;7.40;;;11.70;79.90;;;;;;4991408;28;20432;-78
2023/03/19 01:34:28;;;;;;;10.98;7.18;;;11.70;80.00;;;;;;5012349;28;20590;-78
2023/03/19 01:37:01;;;;;;;10.43;5.93;;;11.70;80.00;;;;;;5021329;28;20049;-78
2023/03/19 01:39:33;;;;;;;13.05;6.43;;;11.70;80.00;;;;;;5005892;28;20058;-78
2023/03/19 01:42:03;;;;;;;11.80;6.77;;;11.70;80.10;;;;;;4991131;28;20050;-78
2023/03/19 01:44:51;;;;;;;9.43;5.57;;;11.70;80.10;;;;;;5021611;28;20061;-78
2023/03/19 01:47:41;;;;;;;8.75;5.15;;;11.70;80.40;;;;;;5027539;28;20131;-78
2023/03/19 01:50:23;;;;;;;9.27;5.13;;;11.70;80.20;;;;;;5021771;28;20061;-78
2023/03/19 01:52:55;;;;;;;8.38;4.45;;;11.70;80.50;;;;;;5014357;28;20553;-79
2023/03/19 01:55:28;;;;;;;7.33;4.47;;;11.60;80.40;;;;;;5018035;28;20057;-78
2023/03/19 01:58:11;;;;;;;8.45;4.22;;;11.60;80.40;;;;;;5012775;28;20061;-78
2023/03/19 02:00:57;;;;;;;7.57;4.03;;;11.50;80.40;;;;;;5027570;28;20147;-78
2023/03/19 02:03:25;;;;;;;7.32;4.30;;;11.50;80.50;;;;;;5012758;28;20108;-78
2023/03/19 02:06:16;;;;;;;6.40;3.80;;;11.50;80.50;;;;;;5012040;28;20322;-79
2023/03/19 02:08:44;;;;;;;7.27;4.07;;;11.50;80.60;;;;;;5011803;28;20112;-78
2023/03/19 02:11:11;;;;;;;6.65;3.67;;;11.50;80.60;;;;;;5012933;28;20042;-78
2023/03/19 02:13:38;;;;;;;7.90;4.20;;;11.50;80.70;;;;;;5014393;28;20050;-78
2023/03/19 02:16:06;;;;;;;6.38;3.65;;;11.50;80.70;;;;;;5028806;28;20440;-78
2023/03/19 02:18:33;;;;;;;7.80;4.00;;;11.50;80.80;;;;;;5011449;28;20046;-78
2023/03/19 02:21:05;;;;;;;8.03;3.80;;;11.50;80.70;;;;;;5017454;28;20123;-78
2023/03/19 02:23:41;;;;;;;5.88;3.30;;;11.50;80.80;;;;;;5017172;28;20053;-78
2023/03/19 02:26:20;;;;;;;6.80;3.70;;;11.50;80.90;;;;;;5029760;28;20054;-77
2023/03/19 02:28:52;;;;;;;7.43;3.85;;;11.50;80.80;;;;;;5014069;28;20245;-78
2023/03/19 02:31:26;;;;;;;6.32;3.60;;;11.50;80.80;;;;;;5013540;28;20053;-78
2023/03/19 02:33:59;;;;;;;6.70;3.50;;;11.50;80.90;;;;;;5028557;28;20058;-78
2023/03/19 02:36:30;;;;;;;6.55;3.35;;;11.50;80.90;;;;;;4993485;28;20409;-78
2023/03/19 02:39:01;;;;;;;7.22;3.80;;;11.40;80.80;;;;;;5016286;28;20050;-78
2023/03/19 02:41:31;;;;;;;5.53;3.35;;;11.40;80.90;;;;;;5020000;28;20056;-78
2023/03/19 02:44:01;;;;;;;6.07;3.38;;;11.40;80.80;;;;;;5009883;28;20711;-78
2023/03/19 02:46:28;;;;;;;6.63;3.40;;;11.40;80.90;;;;;;4998429;28;20042;-77
2023/03/19 02:48:55;;;;;;;6.15;3.40;;;11.40;80.90;;;;;;5051315;28;20064;-78
2023/03/19 02:51:22;;;;;;;6.20;3.30;;;11.40;80.90;;;;;;5046190;28;20053;-78
2023/03/19 02:53:50;;;;;;;5.32;3.17;;;11.40;81.00;;;;;;5011852;28;20586;-78
2023/03/19 02:56:18;;;;;;;5.57;3.40;;;11.40;81.10;;;;;;5012989;28;20124;-78
2023/03/19 02:58:46;;;;;;;6.03;3.00;;;11.40;81.00;;;;;;5045966;28;20053;-77
2023/03/19 03:01:14;;;;;;;5.82;2.90;;;11.30;81.10;;;;;;5012315;28;20050;-78
2023/03/19 03:03:41;;;;;;;6.80;3.17;;;11.30;81.00;;;;;;5024981;28;20061;-77
2023/03/19 03:06:09;;;;;;;6.05;2.92;;;11.30;81.10;;;;;;5050575;28;20100;-77
2023/03/19 03:08:36;;;;;;;6.38;3.03;;;11.30;81.20;;;;;;4994185;28;20496;-78
2023/03/19 03:11:03;;;;;;;6.20;3.10;;;11.30;81.10;;;;;;5009683;28;20055;-78
2023/03/19 03:13:31;;;;;;;5.65;3.17;;;11.30;81.10;;;;;;5029449;28;20058;-77
2023/03/19 03:15:59;;;;;;;7.07;3.38;;;11.30;81.00;;;;;;5012930;28;20070;-78
2023/03/19 03:18:26;;;;;;;6.75;3.80;;;11.30;81.10;;;;;;5031086;28;20054;-77
2023/03/19 03:20:53;;;;;;;7.15;3.80;;;11.30;81.00;;;;;;5029194;28;20198;-77
2023/03/19 03:23:20;;;;;;;6.63;3.80;;;11.30;81.10;;;;;;5014416;28;20053;-77
2023/03/19 03:25:49;;;;;;;5.75;3.65;;;11.30;81.00;;;;;;5029373;28;20100;-78
2023/03/19 03:28:16;;;;;;;6.85;3.58;;;11.30;81.00;;;;;;5012005;28;20050;-77
2023/03/19 03:30:43;;;;;;;5.80;3.40;;;11.30;81.00;;;;;;5029131;28;20074;-78
2023/03/19 03:33:12;;;;;;;6.05;3.45;;;11.30;81.00;;;;;;5030508;28;20069;-78
2023/03/19 03:35:39;;;;;;;6.63;3.43;;;11.30;81.00;;;;;;5012848;28;20054;-78
2023/03/19 03:38:06;;;;;;;7.85;3.65;;;11.30;80.90;;;;;;5028924;28;20053;-78
2023/03/19 03:40:33;;;;;;;5.95;3.50;;;11.20;80.90;;;;;;5025426;28;20058;-78
2023/03/19 03:43:01;;;;;;;6.07;3.67;;;11.20;80.90;;;;;;5005295;28;20137;-77
2023/03/19 03:45:30;;;;;;;6.60;3.70;;;11.20;80.90;;;;;;5017065;28;20800;-77
2023/03/19 03:47:57;;;;;;;7.00;3.70;;;11.20;81.00;;;;;;5016507;28;20041;-77
2023/03/19 03:50:25;;;;;;;7.43;4.03;;;11.10;81.00;;;;;;5032100;28;20053;-77
2023/03/19 03:52:55;;;;;;;6.28;3.78;;;11.10;81.10;;;;;;5008111;28;20528;-78
2023/03/19 03:55:23;;;;;;;7.22;3.92;;;11.10;81.10;;;;;;4992633;28;20051;-78
2023/03/19 03:57:49;;;;;;;6.55;3.72;;;11.10;81.10;;;;;;5015308;28;20049;-77
2023/03/19 04:00:18;;;;;;;8.37;4.07;;;11.10;81.10;;;;;;5031612;28;20630;-77
2023/03/19 04:02:45;;;;;;;6.40;3.50;;;11.10;81.40;;;;;;5008814;28;20042;-78
2023/03/19 04:05:15;;;;;;;8.13;3.78;;;11.10;81.40;;;;;;5032850;28;20128;-77
2023/03/19 04:07:44;;;;;;;5.78;3.05;;;11.10;81.50;;;;;;5026844;28;20046;-78
2023/03/19 04:10:12;;;;;;;5.50;3.00;;;11.10;81.50;;;;;;4991929;28;20069;-77
2023/03/19 04:12:40;;;;;;;5.77;2.90;;;11.10;81.50;;;;;;5027896;28;20477;-78
2023/03/19 04:15:09;;;;;;;6.28;3.15;;;11.10;81.60;;;;;;5035425;28;20131;-77
2023/03/19 04:17:39;;;;;;;6.22;3.05;;;11.10;81.60;;;;;;5012270;28;20060;-77
2023/03/19 04:20:07;;;;;;;6.32;3.33;;;11.10;81.60;;;;;;5005893;28;20070;-77
2023/03/19 04:22:34;;;;;;;6.13;2.92;;;11.10;81.70;;;;;;5029410;28;20054;-77
2023/03/19 04:25:03;;;;;;;6.10;3.40;;;11.10;81.80;;;;;;5028037;28;20042;-77
2023/03/19 04:27:30;;;;;;;7.45;3.63;;;11.10;81.80;;;;;;5011389;28;20050;-77
2023/03/19 04:29:58;;;;;;;6.70;3.15;;;11.10;82.00;;;;;;5004175;28;20050;-77
2023/03/19 04:32:25;;;;;;;6.15;3.50;;;11.10;82.00;;;;;;5002791;28;20046;-77
2023/03/19 04:34:53;;;;;;;6.80;3.58;;;11.10;82.00;;;;;;5005819;28;20055;-77
2023/03/19 04:37:20;;;;;;;8.77;4.00;;;11.10;81.90;;;;;;5028094;28;20049;-77
2023/03/19 04:39:50;;;;;;;6.90;3.42;;;11.10;82.00;;;;;;5009734;28;20053;-78
2023/03/19 04:42:19;;;;;;;6.72;3.47;;;11.10;81.90;;;;;;5011571;28;20496;-77
2023/03/19 04:44:56;;;;;;;6.65;3.10;;;11.10;81.90;;;;;;5010675;28;20595;-78
2023/03/19 04:47:24;;;;;;;6.75;3.40;;;11.10;81.90;;;;;;5011631;28;20081;-77
2023/03/19 04:49:57;;;;;;;5.97;2.83;;;11.10;81.80;;;;;;5004614;28;20062;-77
2023/03/19 04:52:25;;;;;;;6.00;2.97;;;11.10;81.80;;;;;;4991705;28;20132;-77
2023/03/19 04:54:53;;;;;;;5.10;3.20;;;11.00;81.70;;;;;;4991306;28;20061;-77
2023/03/19 04:57:22;;;;;;;5.85;3.00;;;11.00;81.70;;;;;;4991667;28;20049;-78
2023/03/19 04:59:51;;;;;;;5.60;3.22;;;11.00;81.70;;;;;;5005524;28;20046;-77
2023/03/19 05:02:21;;;;;;;5.97;2.80;;;11.00;81.70;;;;;;5003413;28;20053;-77
2023/03/19 05:04:48;;;;;;;6.43;3.30;;;11.00;81.70;;;;;;5023385;28;20404;-78
2023/03/19 05:07:15;;;;;;;6.72;3.42;;;11.00;81.70;;;;;;5003559;28;20064;-78
2023/03/19 05:09:45;;;;;;;6.70;3.50;;;11.00;81.70;;;;;;5024758;28;20054;-77
2023/03/19 05:12:12;;;;;;;6.65;3.78;;;10.90;81.70;;;;;;4991289;28;20057;-77
2023/03/19 05:14:46;;;;;;;6.70;3.40;;;10.90;81.60;;;;;;5010436;28;20050;-77
2023/03/19 05:17:28;;;;;;;7.57;3.70;;;10.90;81.70;;;;;;5027456;28;20057;-78
2023/03/19 05:20:22;;;;;;;6.97;3.90;;;10.90;81.60;;;;;;5024510;28;20065;-77
2023/03/19 05:22:56;;;;;;;6.32;3.85;;;10.90;81.60;;;;;;5010465;28;20256;-77
2023/03/19 05:25:35;;;;;;;6.93;3.60;;;10.90;81.60;;;;;;5015589;28;20075;-77
2023/03/19 05:28:06;;;;;;;5.83;3.50;;;10.80;81.60;;;;;;5027013;28;20057;-77
2023/03/19 05:30:35;;;;;;;6.20;3.38;;;10.80;81.60;;;;;;4996382;28;20109;-77
2023/03/19 05:33:02;;;;;;;6.95;3.50;;;10.80;81.70;;;;;;5017335;28;20060;-77
2023/03/19 05:35:37;;;;;;;6.22;3.30;;;10.80;81.70;;;;;;5026614;28;20532;-77
2023/03/19 05:38:10;;;;;;;6.45;3.50;;;10.80;81.70;;;;;;5026628;28;20053;-77
2023/03/19 05:40:37;;;;;;;7.33;3.80;;;10.70;81.70;;;;;;4996327;28;20102;-77
2023/03/19 05:43:18;;;;;;;5.95;3.35;;;10.70;81.70;;;;;;5010555;28;20057;-77
2023/03/19 05:45:50;;;;;;;6.05;3.67;;;10.70;81.70;;;;;;5007729;28;20042;-77
2023/03/19 05:48:21;;;;;;;6.18;3.67;;;10.70;81.80;;;;;;5018989;28;20208;-77
2023/03/19 05:50:48;;;;;;;6.40;3.80;;;10.70;81.70;;;;;;5027573;28;20137;-77
2023/03/19 05:53:21;;;;;;;6.23;3.93;;;10.70;81.80;;;;;;5002757;28;20062;-77
2023/03/19 05:56:05;;;;;;;6.97;4.15;;;10.60;81.80;;;;;;5009630;28;20050;-77
2023/03/19 05:58:40;;;;;;;8.10;4.07;;;10.60;81.80;;;;;;4993304;28;20046;-77
2023/03/19 06:01:09;;;;;;;7.47;4.32;;;10.60;81.80;;;;;;5020978;28;20328;-77
2023/03/19 06:03:36;;;;;;;7.85;4.30;;;10.60;81.90;;;;;;5026407;28;20085;-78
2023/03/19 06:06:07;;;;;;;6.37;4.23;;;10.60;81.90;;;;;;5009795;28;20054;-77
2023/03/19 06:08:42;;;;;;;7.88;4.55;;;10.60;82.00;;;;;;5009161;28;20085;-77
2023/03/19 06:11:16;;;;;;;8.50;4.40;;;10.50;81.90;;;;;;5009753;28;20054;-77
2023/03/19 06:13:46;;;;;;;9.20;4.55;;;10.50;82.00;;;;;;4993192;28;20691;-77
2023/03/19 06:16:18;;;;;;;7.65;4.43;;;10.50;82.00;;;;;;5003994;28;20050;-77
2023/03/19 06:18:52;;;;;;;9.87;4.60;;;10.50;82.10;;;;;;5001610;28;20049;-77
2023/03/19 06:21:19;;;;;;;7.75;4.57;;;10.50;82.00;;;;;;5009854;28;20050;-77
2023/03/19 06:23:46;;;;;;;8.45;5.07;;;10.50;82.00;;;;;;5025890;28;20124;-77
2023/03/19 06:26:17;;;;;;;8.38;5.28;;;10.40;82.10;;;;;;5009828;28;20042;-77
2023/03/19 06:28:52;;;;;;;8.32;4.70;;;10.50;82.10;;;;;;4995786;28;20599;-77
2023/03/19 06:31:21;;;;;;;8.20;5.03;;;10.40;82.10;;;;;;5013824;28;20403;-77
2023/03/19 06:34:15;;;;;;;7.88;4.60;;;10.40;82.20;;;;;;5025580;28;20061;-77
2023/03/19 06:37:26;;;;;;;7.68;4.05;;;10.40;82.10;;;;;;5011498;28;20046;-77
2023/03/19 06:39:54;;;;;;;6.80;3.80;;;10.40;82.20;;;;;;5029430;28;20144;-77
2023/03/19 06:42:22;;;;;;;8.07;4.15;;;10.40;82.10;;;;;;5031348;28;20101;-77
2023/03/19 06:44:49;;;;;;;8.13;4.00;;;10.40;82.10;;;;;;5013176;28;20120;-77
2023/03/19 06:47:18;;;;;;;7.47;4.43;;;10.40;82.10;;;;;;5030164;28;20662;-77
2023/03/19 06:49:45;;;;;;;8.40;4.30;;;10.40;82.10;;;;;;5013403;28;20045;-77
2023/03/19 06:52:12;;;;;;;9.40;4.53;;;10.40;82.20;;;;;;5037573;28;20156;-77
2023/03/19 06:54:40;;;;;;;6.45;3.88;;;10.30;82.20;;;;;;5045921;28;20164;-77
2023/03/19 06:57:07;;;;;;;7.60;4.33;;;10.30;82.30;;;;;;5051665;28;20058;-77
2023/03/19 06:59:34;;;;;;;7.65;4.63;;;10.30;82.30;;;;;;5032213;28;20140;-77
2023/03/19 07:02:02;;;;;;;7.90;4.43;;;10.30;82.30;;;;;;5034917;28;20132;-77
2023/03/19 07:04:30;;;;;;;8.50;4.68;;;10.30;82.40;;;;;;5026638;28;20480;-77
2023/03/19 07:06:57;;;;;;;8.38;5.22;;;10.30;82.60;;;;;;5030445;28;20148;-76
2023/03/19 07:09:24;;;;;;;8.87;4.97;;;10.30;82.80;;;;;;5015432;28;20584;-77
2023/03/19 07:11:51;;;;;;;8.40;5.28;;;10.30;82.90;;;;;;5016682;28;20506;-77
2023/03/19 07:14:18;;;;;;;9.30;5.18;;;10.30;83.10;;;;;;5049034;28;20055;-76
2023/03/19 07:16:44;;;;;;;9.60;5.53;;;10.30;83.10;;;;;;5024782;28;20046;-77
2023/03/19 07:19:12;;;;;;;10.05;5.57;;;10.30;83.50;;;;;;5019686;28;20081;-77
2023/03/19 07:21:40;;;;;;;11.17;6.13;;;10.40;83.70;;;;;;5005711;28;20105;-78
2023/03/19 07:24:07;;;;;;;10.32;5.75;;;10.40;83.90;;;;;;5025250;28;20089;-78
2023/03/19 07:26:34;;;;;;;10.57;6.07;;;10.40;83.90;;;;;;5021133;28;20694;-78
2023/03/19 07:29:01;;;;;;;10.57;5.70;;;10.40;84.20;;;;;;5021064;28;20054;-78
2023/03/19 07:31:28;;;;;;;9.13;5.53;;;10.40;84.40;;;;;;5022855;28;20050;-78
2023/03/19 07:33:55;;;;;;;10.70;6.23;;;10.50;84.50;;;;;;5025787;28;20086;-78
2023/03/19 07:36:22;;;;;;;10.07;6.20;;;10.50;84.60;;;;;;5025850;28;20133;-78
2023/03/19 07:38:51;;;;;;;11.05;6.32;;;10.50;84.70;;;;;;5024352;28;20042;-77
2023/03/19 07:41:18;;;;;;;10.23;6.13;;;10.50;85.00;;;;;;5023063;28;20096;-78
2023/03/19 07:43:45;;;;;;;10.27;5.95;;;10.50;85.20;;;;;;5025575;28;20515;-78
2023/03/19 07:46:12;;;;;;;11.57;6.30;;;10.60;85.00;;;;;;5017395;28;20080;-78
2023/03/19 07:48:40;;;;;;;10.90;6.53;;;10.60;85.30;;;;;;5023279;28;21098;-77
2023/03/19 07:51:07;;;;;;;10.88;6.45;;;10.60;85.30;;;;;;5024961;28;20051;-78
2023/03/19 07:53:34;;;;;;;10.60;6.75;;;10.60;85.50;;;;;;5021545;28;20042;-78
2023/03/19 07:56:03;;;;;;;12.23;6.85;;;10.70;85.90;;;;;;5022108;28;20523;-76
2023/03/19 07:58:30;;;;;;;13.03;7.63;;;10.70;86.00;;;;;;5023784;28;20189;-77
2023/03/19 08:00:57;;;;;;;11.85;7.22;;;10.80;86.30;;;;;;5000952;28;20061;-77
2023/03/19 08:03:24;;;;;;;12.23;7.70;;;10.90;86.20;;;;;;5026849;28;20172;-78
2023/03/19 08:05:52;;;;;;;13.52;7.55;;;10.90;86.10;;;;;;5024766;28;20050;-77
2023/03/19 08:08:19;;;;;;;12.55;7.47;;;10.90;86.10;;;;;;5025706;28;20046;-76
2023/03/19 08:10:49;;;;;;;12.70;7.20;;;10.90;86.10;;;;;;5021437;28;20137;-76
2023/03/19 08:13:17;;;;;;;13.90;7.93;;;11.00;85.80;;;;;;5007752;28;20102;-76
2023/03/19 08:15:45;;;;;;;12.20;7.65;;;11.00;85.90;;;;;;5021798;28;20092;-76
2023/03/19 08:18:12;;;;;;;13.68;8.05;;;11.00;85.70;;;;;;5026888;28;20072;-76
2023/03/19 08:20:39;;;;;;;11.68;7.38;;;11.10;85.70;;;;;;5023051;28;20054;-76
2023/03/19 08:23:06;;;;;;;12.60;7.80;;;11.10;85.60;;;;;;5027412;28;20057;-76
2023/03/19 08:25:33;;;;;;;13.85;8.18;;;11.10;85.40;;;;;;5024026;28;20129;-77
2023/03/19 08:28:00;;;;;;;12.43;7.53;;;11.10;85.10;;;;;;5019114;28;20839;-77
2023/03/19 08:30:29;;;;;;;11.32;7.40;;;11.10;84.70;;;;;;5024427;28;20080;-77
2023/03/19 08:32:56;;;;;;;13.98;8.77;;;11.10;84.60;;;;;;5030183;28;20053;-76
2023/03/19 08:35:25;;;;;;;13.63;7.80;;;11.20;84.50;;;;;;5028135;28;20046;-77
2023/03/19 08:37:53;;;;;;;12.55;7.30;;;11.20;84.20;;;;;;5017489;28;20575;-77
2023/03/19 08:40:20;;;;;;;12.10;6.80;;;11.30;84.10;;;;;;5021000;28;20062;-77
2023/03/19 08:42:48;;;;;;;12.52;6.90;;;11.30;83.50;;;;;;5026767;28;20061;-77
2023/03/19 08:45:16;;;;;;;12.30;6.90;;;11.30;83.40;;;;;;5025177;28;20058;-77
2023/03/19 08:47:44;;;;;;;12.13;7.10;;;11.30;83.40;;;;;;5030661;28;20045;-77
2023/03/19 08:50:12;;;;;;;12.48;7.03;;;11.30;83.00;;;;;;5023011;28;20050;-77
2023/03/19 08:52:39;;;;;;;11.23;5.40;;;11.30;82.60;;;;;;5028015;28;20177;-78
2023/03/19 08:55:07;;;;;;;9.07;5.63;;;11.30;82.60;;;;;;5026280;28;20088;-77
2023/03/19 08:57:35;;;;;;;10.82;5.68;;;11.30;82.00;;;;;;5006638;28;20062;-78
2023/03/19 09:00:03;;;;;;;9.83;4.73;;;11.30;81.50;;;;;;5019682;28;20061;-78
2023/03/19 09:02:30;;;;;;;10.68;5.57;;;11.30;81.20;;;;;;5021893;28;20054;-79
2023/03/19 09:04:58;;;;;;;10.48;6.25;;;11.20;81.10;;;;;;5022611;28;20603;-76
2023/03/19 09:07:25;;;;;;;12.70;6.32;;;11.20;81.30;;;;;;5017181;28;20053;-76
2023/03/19 09:09:52;;;;;;;12.98;6.60;;;11.10;81.50;;;;;;5020135;28;20054;-76
2023/03/19 09:12:19;;;;;;;10.90;6.27;;;11.10;81.60;;;;;;5015850;28;20578;-76
2023/03/19 09:14:46;;;;;;;12.10;6.75;;;11.10;81.90;;;;;;5020602;28;20053;-77
2023/03/19 09:17:14;;;;;;;10.85;6.68;;;11.20;81.90;;;;;;5016366;28;20085;-77
2023/03/19 09:19:41;;;;;;;10.18;6.07;;;11.20;81.60;;;;;;5001898;28;20141;-76
2023/03/19 09:22:10;;;;;;;11.05;6.50;;;11.20;81.60;;;;;;5012465;28;20505;-76
2023/03/19 09:24:37;;;;;;;10.20;5.43;;;11.30;81.80;;;;;;5013161;28;20535;-77
2023/03/19 09:27:06;;;;;;;10.30;5.88;;;11.30;81.80;;;;;;5018924;28;20159;-77
2023/03/19 09:29:33;;;;;;;10.77;6.15;;;11.30;81.80;;;;;;5009438;28;20141;-76
2023/03/19 09:32:00;;;;;;;10.45;5.75;;;11.30;81.70;;;;;;5004733;28;20107;-77
2023/03/19 09:34:27;;;;;;;10.20;5.63;;;11.30;82.00;;;;;;5018608;28;20058;-76
2023/03/19 09:36:55;;;;;;;9.87;5.90;;;11.40;82.10;;;;;;5015051;28;20093;-76
2023/03/19 09:39:23;;;;;;;11.15;6.22;;;11.40;82.00;;;;;;5012952;28;20047;-76
2023/03/19 09:42:02;;;;;;;12.52;7.03;;;11.40;81.80;;;;;;5021392;28;20056;-76
2023/03/19 09:44:31;;;;;;;10.93;6.25;;;11.40;81.50;;;;;;4992925;28;20047;-77
2023/03/19 09:47:03;;;;;;;12.82;5.60;;;11.50;81.50;;;;;;5018089;28;20149;-77
2023/03/19 09:49:33;;;;;;;9.43;5.83;;;11.50;80.60;;;;;;5014897;28;20172;-78
2023/03/19 09:52:05;;;;;;;11.30;6.85;;;11.50;80.10;;;;;;5015072;28;20161;-76
2023/03/19 09:54:37;;;;;;;12.43;6.93;;;11.40;80.40;;;;;;5024192;28;20675;-76
2023/03/19 09:57:05;;;;;;;13.35;7.20;;;11.40;80.70;;;;;;5018807;28;20754;-76
2023/03/19 09:59:32;;;;;;;12.30;6.25;;;11.40;80.70;;;;;;5016515;28;20042;-76
2023/03/19 10:02:17;;;;;;;11.57;6.70;;;11.40;80.70;;;;;;5015523;28;20056;-76
2023/03/19 10:04:53;;;;;;;11.68;6.28;;;11.40;80.90;;;;;;5016978;28;20046;-76
2023/03/19 10:07:38;;;;;;;11.68;7.15;;;11.50;81.10;;;;;;5031776;28;20078;-76
2023/03/19 10:10:26;;;;;;;13.43;7.40;;;11.50;80.80;;;;;;5015594;28;20057;-76
2023/03/19 10:13:02;;;;;;;14.30;7.78;;;11.50;80.90;;;;;;5026525;28;20073;-77
2023/03/19 10:15:30;;;;;;;15.30;7.73;;;11.50;80.70;;;;;;5022450;28;20189;-80
2023/03/19 10:18:03;;;;;;;13.95;7.68;;;11.50;80.80;;;;;;5027137;28;20064;-79
2023/03/19 10:20:38;;;;;;;13.65;7.43;;;11.40;80.60;;;;;;5025245;28;20058;-81
2023/03/19 10:23:22;;;;;;;13.98;6.45;;;11.40;80.60;;;;;;5027001;28;20050;-79
2023/03/19 10:25:53;;;;;;;14.13;8.65;;;11.40;80.80;;;;;;5026274;28;20158;-78
2023/03/19 10:28:22;;;;;;;14.90;8.13;;;11.30;81.00;;;;;;5019613;28;20545;-78
2023/03/19 10:30:55;;;;;;;16.17;9.30;;;11.30;81.20;;;;;;5023036;28;20053;-79
2023/03/19 10:33:25;;;;;;;15.35;9.70;;;11.30;81.40;;;;;;5021940;28;20061;-78
2023/03/19 10:35:58;;;;;;;14.82;9.38;;;11.30;81.50;;;;;;5026363;28;20481;-76
2023/03/19 10:38:26;;;;;;;15.27;9.00;;;11.30;81.60;;;;;;5019572;28;20084;-78
2023/03/19 10:41:21;;;;;;;14.47;8.47;;;11.30;81.90;;;;;;5004629;28;20221;-78
2023/03/19 10:43:53;;;;;;;16.17;9.70;;;11.40;81.90;;;;;;5019286;28;20061;-78
2023/03/19 10:46:20;;;;;;;16.55;10.02;;;11.40;81.80;;;;;;5034391;28;20090;-79
2023/03/19 10:48:48;;;;;;;17.27;10.77;;;11.40;81.80;;;;;;5007136;28;20058;-77
2023/03/19 10:51:18;;;;;;;15.63;8.68;;;11.40;81.90;;;;;;5029618;28;20136;-77
2023/03/19 10:53:45;;;;;;;13.93;8.10;;;11.50;81.70;;;;;;5016240;28;20082;-76
2023/03/19 10:56:22;;;;;;;16.50;8.75;;;11.50;81.40;;;;;;5026453;28;20112;-78
2023/03/19 10:59:01;;;;;;;16.92;9.85;;;11.40;81.20;;;;;;5027333;28;20081;-76
2023/03/19 11:01:31;;;;;;;14.90;8.45;;;11.40;81.50;;;;;;5021056;28;20054;-78
2023/03/19 11:04:00;;;;;;;14.63;8.70;;;11.40;81.70;;;;;;5002606;28;20085;-78
2023/03/19 11:06:31;;;;;;;15.07;8.13;;;11.40;81.90;;;;;;5003476;28;20056;-77
2023/03/19 11:09:01;;;;;;;17.85;10.05;;;11.40;82.00;;;;;;5022183;28;20056;-77
2023/03/19 11:11:35;;;;;;;15.60;8.77;;;11.50;82.00;;;;;;5022075;28;20054;-77
2023/03/19 11:14:13;;;;;;;13.98;6.85;;;11.50;82.10;;;;;;5017901;28;20057;-78
2023/03/19 11:16:57;;;;;;;14.63;7.65;;;11.50;82.00;;;;;;5021272;28;20104;-75
2023/03/19 11:19:26;;;;;;;15.53;7.43;;;11.50;81.60;;;;;;5018173;28;20084;-77
2023/03/19 11:22:01;;;;;;;14.07;7.28;;;11.50;81.50;;;;;;5016894;28;20475;-77
2023/03/19 11:24:33;;;;;;;17.75;9.70;;;11.50;81.60;;;;;;5019051;28;20057;-76
2023/03/19 11:27:02;;;;;;;14.90;7.57;;;11.50;81.70;;;;;;5024095;28;20058;-77
2023/03/19 11:29:29;;;;;;;24.67;12.23;;;11.50;81.80;;;;;;5021679;28;20064;-77
2023/03/19 11:32:10;;;;;;;20.73;11.37;;;11.50;81.80;;;;;;5019229;28;20137;-76
2023/03/19 11:34:44;;;;;;;13.90;8.05;;;11.50;81.90;;;;;;5000801;28;20175;-77
2023/03/19 11:37:27;;;;;;;15.35;9.23;;;11.50;82.20;;;;;;5020573;28;20070;-77
2023/03/19 11:40:00;;;;;;;15.98;9.05;;;11.50;82.40;;;;;;5022386;28;20435;-77
2023/03/19 11:42:52;;;;;;;15.90;9.63;;;11.50;82.40;;;;;;5022836;28;20100;-78
2023/03/19 11:45:30;;;;;;;17.17;10.03;;;11.60;82.30;;;;;;5013984;28;20179;-77
2023/03/19 11:48:06;;;;;;;16.52;9.90;;;11.70;82.10;;;;;;5026095;28;20054;-78
2023/03/19 11:50:40;;;;;;;17.33;9.98;;;11.70;81.70;;;;;;5024359;28;20579;-77
2023/03/19 11:53:21;;;;;;;14.55;7.20;;;11.70;81.60;;;;;;5004896;28;20042;-77
2023/03/19 11:55:53;;;;;;;19.90;11.23;;;11.80;81.60;;;;;;5021075;28;20571;-77
2023/03/19 11:58:36;;;;;;;13.70;7.47;;;11.90;81.20;;;;;;5020764;28;20082;-77
2023/03/19 12:01:09;;;;;;;11.75;6.00;;;11.90;81.30;;;;;;5020358;28;20138;-77
2023/03/19 12:04:01;;;;;;;14.60;8.95;;;11.90;81.50;;;;;;5018616;28;20520;-75
2023/03/19 12:06:38;;;;;;;14.25;8.25;;;11.90;81.20;;;;;;5016383;28;20082;-76
2023/03/19 12:09:13;;;;;;;14.38;7.45;;;11.90;81.10;;;;;;5019351;28;20526;-77
2023/03/19 12:11:49;;;;;;;12.93;6.77;;;12.00;80.80;;;;;;5015243;28;20678;-79
2023/03/19 12:14:30;;;;;;;14.52;8.02;;;12.00;80.70;;;;;;5021887;28;20057;-78
2023/03/19 12:17:15;;;;;;;14.00;7.25;;;11.90;80.80;;;;;;5014723;28;20054;-78
2023/03/19 12:20:02;;;;;;;11.15;5.75;;;12.00;81.20;;;;;;5006548;28;20614;-78
2023/03/19 12:22:42;;;;;;;14.90;9.43;;;12.00;81.10;;;;;;5025187;28;20512;-77
2023/03/19 12:25:24;;;;;;;11.43;7.67;;;12.00;81.00;;;;;;5025887;28;20073;-77
2023/03/19 12:27:55;;;;;;;13.82;7.40;;;12.00;81.10;;;;;;5016005;28;20086;-77
2023/03/19 12:30:33;;;;;;;13.05;7.68;;;12.00;81.00;;;;;;5026085;28;20060;-77
2023/03/19 12:33:11;;;;;;;15.82;6.38;;;12.00;80.70;;;;;;5018304;28;20049;-78
2023/03/19 12:35:42;;;;;;;10.60;5.03;;;12.00;80.90;;;;;;5015680;28;20140;-78
2023/03/19 12:38:13;;;;;;;14.73;6.43;;;12.10;80.60;;;;;;5012425;28;20057;-77
2023/03/19 12:40:47;;;;;;;14.80;7.53;;;12.10;80.40;;;;;;5011378;28;20054;-76
2023/03/19 12:43:18;;;;;;;15.75;8.45;;;12.10;80.30;;;;;;5013622;28;20670;-76
2023/03/19 12:45:47;;;;;;;15.30;8.82;;;12.10;80.70;;;;;;5009188;28;20339;-76
2023/03/19 12:48:19;;;;;;;11.38;6.10;;;12.10;80.70;;;;;;5022064;28;20140;-77
2023/03/19 12:50:50;;;;;;;8.17;4.50;;;12.20;80.20;;;;;;5021289;28;20050;-77
2023/03/19 12:53:27;;;;;;;12.02;6.30;;;12.10;80.50;;;;;;5020598;28;20046;-77
2023/03/19 12:56:00;;;;;;;11.20;5.13;;;12.10;80.00;;;;;;5019552;28;20086;-77
2023/03/19 12:58:38;;;;;;;13.05;7.05;;;12.20;79.60;;;;;;5016782;28;20058;-76